Time;durP1;ratioP1;P1;durP2;ratioP2;P2;SDS_P1;SDS_P2;PMS_P1;PMS_P2;Temp;Humidity;BMP_temperature;BMP_pressure;BME280_temperature;BME280_humidity;BME280_pressure;Samples;Min_cycle;Max_cycle;Signal;HPM_P1;HPM_P2
2021/03/09 00:00:51;;;;;;;8.67;4.67;;;;;;;2.58;100.00;98326.97;5031737;28;20205;-74
2021/03/09 00:03:21;;;;;;;8.93;4.87;;;;;;;2.47;100.00;98323.69;5032169;28;20248;-74
2021/03/09 00:05:47;;;;;;;11.90;5.27;;;;;;;2.58;100.00;98324.34;5020636;28;20674;-72
2021/03/09 00:08:14;;;;;;;10.30;4.77;;;;;;;2.34;100.00;98321.34;5028960;28;20238;-74
2021/03/09 00:10:41;;;;;;;12.40;5.50;;;;;;;2.50;100.00;98321.59;5029118;28;20230;-74
2021/03/09 00:13:09;;;;;;;13.03;5.13;;;;;;;2.39;100.00;98318.31;5031207;28;20213;-71
2021/03/09 00:15:36;;;;;;;12.90;5.80;;;;;;;2.44;100.00;98316.91;5026804;28;20205;-71
2021/03/09 00:18:03;;;;;;;9.70;5.07;;;;;;;2.27;100.00;98320.28;5025562;28;20210;-74
2021/03/09 00:20:30;;;;;;;10.20;4.70;;;;;;;2.47;100.00;98319.25;5028189;28;20268;-73
2021/03/09 00:22:56;;;;;;;10.10;4.77;;;;;;;2.47;100.00;98321.88;5029857;28;20198;-74
2021/03/09 00:25:23;;;;;;;11.57;5.33;;;;;;;2.15;100.00;98312.66;5026719;28;20210;-74
2021/03/09 00:27:52;;;;;;;10.40;5.17;;;;;;;2.26;100.00;98316.00;5030553;28;20202;-74
2021/03/09 00:30:20;;;;;;;8.37;4.63;;;;;;;2.26;100.00;98310.72;5023898;28;20325;-74
2021/03/09 00:32:47;;;;;;;10.90;5.33;;;;;;;2.30;100.00;98309.44;5030232;28;20199;-73
2021/03/09 00:35:14;;;;;;;9.43;5.10;;;;;;;2.45;100.00;98309.84;5029947;28;20202;-74
2021/03/09 00:37:41;;;;;;;7.70;4.30;;;;;;;2.35;100.00;98312.47;5023195;28;20217;-73
2021/03/09 00:40:09;;;;;;;11.63;4.83;;;;;;;2.31;100.00;98307.66;5022184;28;20706;-73
2021/03/09 00:42:36;;;;;;;13.80;5.67;;;;;;;2.10;100.00;98307.84;5026287;28;20238;-73
2021/03/09 00:45:03;;;;;;;12.37;5.00;;;;;;;2.23;100.00;98303.09;5033205;28;20206;-73
2021/03/09 00:47:30;;;;;;;11.23;5.17;;;;;;;2.26;100.00;98297.56;5029830;28;20217;-73
2021/03/09 00:49:58;;;;;;;10.53;5.37;;;;;;;2.35;100.00;98301.13;5032077;28;20221;-73
2021/03/09 00:52:25;;;;;;;8.93;4.83;;;;;;;2.29;100.00;98301.72;5032713;28;20216;-73
2021/03/09 00:54:52;;;;;;;10.57;4.90;;;;;;;2.19;100.00;98299.06;5032070;28;20209;-72
2021/03/09 00:57:19;;;;;;;7.97;4.77;;;;;;;2.12;100.00;98298.00;5033322;28;20212;-73
2021/03/09 00:59:46;;;;;;;9.47;4.73;;;;;;;2.16;100.00;98296.75;5034060;28;20218;-73
2021/03/09 01:02:12;;;;;;;12.87;5.23;;;;;;;2.23;100.00;98300.47;5034566;28;20206;-72
2021/03/09 01:04:40;;;;;;;10.00;4.87;;;;;;;2.17;100.00;98298.41;5030941;28;20206;-73
2021/03/09 01:07:07;;;;;;;15.40;5.73;;;;;;;2.16;100.00;98298.53;5031269;28;20214;-71
2021/03/09 01:09:34;;;;;;;14.30;5.50;;;;;;;2.14;100.00;98297.84;5032395;28;20234;-72
2021/03/09 01:12:00;;;;;;;11.27;4.90;;;;;;;1.97;100.00;98301.19;5033484;28;20272;-73
2021/03/09 01:14:27;;;;;;;9.07;5.13;;;;;;;2.01;100.00;98302.56;5033900;28;20208;-71
2021/03/09 01:16:54;;;;;;;14.60;6.07;;;;;;;2.11;100.00;98292.88;5032787;28;20209;-73
2021/03/09 01:19:21;;;;;;;10.30;5.40;;;;;;;2.15;100.00;98288.97;5033463;28;20749;-72
2021/03/09 01:21:49;;;;;;;14.03;5.60;;;;;;;1.94;100.00;98286.50;5032037;28;20195;-73
2021/03/09 01:24:16;;;;;;;12.73;5.83;;;;;;;1.97;100.00;98290.66;5033526;28;20206;-71
2021/03/09 01:26:42;;;;;;;10.20;5.43;;;;;;;1.97;100.00;98286.25;5028494;28;20274;-73
2021/03/09 01:29:09;;;;;;;11.47;5.70;;;;;;;2.06;100.00;98290.66;5029443;28;20750;-71
2021/03/09 01:31:36;;;;;;;10.87;5.40;;;;;;;2.11;100.00;98288.44;5024681;28;20405;-71
2021/03/09 01:34:03;;;;;;;13.63;5.57;;;;;;;2.04;100.00;98289.97;5033965;28;20217;-71
2021/03/09 01:36:30;;;;;;;10.70;5.37;;;;;;;2.23;100.00;98278.56;5029709;28;20237;-72
2021/03/09 01:38:58;;;;;;;11.40;4.77;;;;;;;2.17;100.00;98284.41;5029704;28;20260;-71
2021/03/09 01:41:24;;;;;;;12.13;5.33;;;;;;;2.07;100.00;98280.94;5029676;28;20199;-73
2021/03/09 01:43:51;;;;;;;11.53;5.27;;;;;;;2.06;100.00;98276.66;5032937;28;20257;-71
2021/03/09 01:46:19;;;;;;;11.40;5.50;;;;;;;1.89;100.00;98272.13;5030487;28;20293;-71
2021/03/09 01:48:47;;;;;;;13.57;5.90;;;;;;;1.83;100.00;98267.44;5032626;28;20227;-71
2021/03/09 01:51:15;;;;;;;13.90;5.93;;;;;;;1.93;100.00;98268.25;5032917;28;20229;-73
2021/03/09 01:53:42;;;;;;;10.67;5.87;;;;;;;2.11;100.00;98259.50;5032727;28;20655;-73
2021/03/09 01:56:10;;;;;;;11.23;6.17;;;;;;;1.96;100.00;98257.44;5030163;28;20666;-73
2021/03/09 01:58:39;;;;;;;11.03;5.57;;;;;;;1.83;100.00;98251.66;5024074;28;20728;-71
2021/03/09 02:01:06;;;;;;;10.33;5.63;;;;;;;1.94;100.00;98252.31;5029820;28;20207;-74
2021/03/09 02:03:33;;;;;;;8.27;4.73;;;;;;;1.95;100.00;98248.72;5028950;28;20699;-74
2021/03/09 02:06:00;;;;;;;19.57;6.97;;;;;;;1.73;100.00;98243.75;5030781;28;20256;-74
2021/03/09 02:08:27;;;;;;;9.03;4.93;;;;;;;1.78;100.00;98245.97;5033107;28;20234;-74
2021/03/09 02:10:54;;;;;;;12.97;5.87;;;;;;;1.90;100.00;98242.22;5023567;28;20234;-73
2021/03/09 02:13:33;;;;;;;13.73;5.33;;;;;;;1.82;100.00;98242.06;5031461;28;20203;-73
2021/03/09 02:16:06;;;;;;;9.37;5.43;;;;;;;1.69;100.00;98233.66;5027198;28;20235;-73
2021/03/09 02:18:41;;;;;;;10.53;6.10;;;;;;;1.72;100.00;98234.22;5031146;28;20222;-73
2021/03/09 02:21:42;;;;;;;11.57;5.60;;;;;;;1.81;100.00;98232.53;5020257;28;20614;-73
2021/03/09 02:24:38;;;;;;;14.10;6.07;;;;;;;1.99;100.00;98233.47;5029710;28;20210;-73
2021/03/09 02:27:24;;;;;;;10.77;4.70;;;;;;;1.94;100.00;98235.69;5022897;28;20222;-74
2021/03/09 02:30:11;;;;;;;8.60;5.37;;;;;;;1.64;100.00;98228.00;5024867;28;20556;-74
2021/03/09 02:32:40;;;;;;;13.10;6.07;;;;;;;1.61;100.00;98223.00;5032552;28;20202;-73
2021/03/09 02:35:12;;;;;;;10.87;5.07;;;;;;;1.88;100.00;98223.94;5026047;28;20210;-73
2021/03/09 02:37:41;;;;;;;10.43;5.50;;;;;;;1.84;100.00;98217.28;5024846;28;20575;-73
2021/03/09 02:40:12;;;;;;;11.00;5.00;;;;;;;1.60;100.00;98213.47;5029221;28;20226;-73
2021/03/09 02:42:50;;;;;;;10.13;5.50;;;;;;;1.80;100.00;98215.94;5024681;28;20203;-73
2021/03/09 02:45:20;;;;;;;12.90;4.90;;;;;;;1.70;100.00;98228.28;5030641;28;20217;-71
2021/03/09 02:47:49;;;;;;;12.57;5.57;;;;;;;1.67;100.00;98225.91;5029460;28;20284;-70
2021/03/09 02:50:18;;;;;;;12.33;5.73;;;;;;;1.56;100.00;98219.97;5027191;28;20211;-73
2021/03/09 02:52:49;;;;;;;11.30;5.37;;;;;;;1.53;100.00;98215.81;5032290;28;20854;-73
2021/03/09 02:55:17;;;;;;;13.07;6.30;;;;;;;1.68;100.00;98211.78;5030032;28;20256;-71
2021/03/09 02:57:44;;;;;;;11.43;5.80;;;;;;;1.68;100.00;98221.50;5031542;28;20240;-70
2021/03/09 03:00:13;;;;;;;11.93;5.67;;;;;;;1.69;100.00;98216.06;5027922;28;20230;-73
2021/03/09 03:02:41;;;;;;;10.73;5.60;;;;;;;1.63;100.00;98216.63;5024663;28;20203;-73
2021/03/09 03:05:10;;;;;;;13.40;6.10;;;;;;;1.61;100.00;98207.22;5029593;28;20268;-74
2021/03/09 03:07:38;;;;;;;12.43;6.57;;;;;;;1.55;100.00;98213.03;5031705;28;20225;-75
2021/03/09 03:10:06;;;;;;;13.87;5.87;;;;;;;1.66;100.00;98208.47;5027400;28;20229;-73
2021/03/09 03:12:33;;;;;;;14.57;6.00;;;;;;;1.54;100.00;98206.13;5035017;28;21057;-74
2021/03/09 03:15:03;;;;;;;10.33;6.17;;;;;;;1.48;100.00;98201.44;5027372;28;20203;-73
2021/03/09 03:17:31;;;;;;;13.53;5.47;;;;;;;1.55;100.00;98200.75;5025561;28;20256;-74
2021/03/09 03:19:59;;;;;;;13.53;5.60;;;;;;;1.55;100.00;98205.16;5031627;28;20238;-73
2021/03/09 03:22:26;;;;;;;11.07;5.67;;;;;;;1.62;100.00;98207.09;5025671;28;20202;-74
2021/03/09 03:24:54;;;;;;;13.63;6.40;;;;;;;1.66;100.00;98207.63;5030229;28;20209;-73
2021/03/09 03:27:21;;;;;;;13.27;5.83;;;;;;;1.35;100.00;98204.34;5026076;28;20203;-73
2021/03/09 03:29:49;;;;;;;14.30;6.60;;;;;;;1.44;100.00;98214.03;5027062;28;20241;-74
2021/03/09 03:32:16;;;;;;;15.47;6.33;;;;;;;1.55;100.00;98213.88;5028633;28;20218;-73
2021/03/09 03:34:44;;;;;;;10.77;5.77;;;;;;;1.64;100.00;98204.31;5028296;28;20219;-73
2021/03/09 03:37:13;;;;;;;15.03;6.70;;;;;;;1.68;100.00;98209.16;5023375;28;20203;-73
2021/03/09 03:39:40;;;;;;;14.63;6.63;;;;;;;1.56;100.00;98207.66;5026261;28;20306;-73
2021/03/09 03:42:07;;;;;;;11.57;6.07;;;;;;;1.57;100.00;98203.19;5039077;28;20537;-74
2021/03/09 03:44:34;;;;;;;15.70;6.67;;;;;;;1.58;100.00;98202.25;5030587;28;20663;-74
2021/03/09 03:47:01;;;;;;;13.43;6.47;;;;;;;1.54;100.00;98206.94;5026759;28;20199;-73
2021/03/09 03:49:29;;;;;;;12.77;6.43;;;;;;;1.51;100.00;98203.78;5029904;28;21896;-73
2021/03/09 03:52:07;;;;;;;15.63;6.30;;;;;;;1.52;100.00;98200.16;5030924;28;20226;-73
2021/03/09 03:54:43;;;;;;;12.17;6.67;;;;;;;1.32;100.00;98199.38;5026700;28;20206;-73
2021/03/09 03:57:16;;;;;;;17.00;6.63;;;;;;;1.42;100.00;98204.63;5022628;28;20674;-73
2021/03/09 03:59:45;;;;;;;13.33;6.83;;;;;;;1.54;100.00;98209.56;5020994;28;20237;-74
2021/03/09 04:02:13;;;;;;;13.37;6.50;;;;;;;1.48;100.00;98201.44;5028376;28;20571;-73
2021/03/09 04:04:40;;;;;;;11.33;5.70;;;;;;;1.51;100.00;98196.72;5027141;28;20647;-73
2021/03/09 04:07:08;;;;;;;12.83;6.43;;;;;;;1.50;100.00;98200.34;5023092;28;20214;-73
2021/03/09 04:09:36;;;;;;;11.60;5.80;;;;;;;1.32;100.00;98199.38;5030087;28;20256;-73
2021/03/09 04:12:06;;;;;;;14.30;6.63;;;;;;;1.40;100.00;98191.63;5027778;28;20233;-74
2021/03/09 04:14:33;;;;;;;11.27;6.47;;;;;;;1.40;100.00;98194.25;5023264;28;20202;-74
2021/03/09 04:17:02;;;;;;;12.50;5.83;;;;;;;1.48;100.00;98197.00;5026645;28;20213;-74
2021/03/09 04:19:29;;;;;;;14.80;6.83;;;;;;;1.50;100.00;98191.59;5030845;28;20227;-73
2021/03/09 04:21:57;;;;;;;13.70;6.63;;;;;;;1.50;100.00;98184.56;5030840;28;20670;-73
2021/03/09 04:24:25;;;;;;;11.70;6.30;;;;;;;1.39;100.00;98183.88;5020934;28;20222;-74
2021/03/09 04:26:53;;;;;;;12.83;6.03;;;;;;;1.40;100.00;98182.88;5022278;28;20217;-74
2021/03/09 04:29:20;;;;;;;15.77;7.07;;;;;;;1.25;100.00;98190.38;5028815;28;20713;-74
2021/03/09 04:31:47;;;;;;;13.87;6.50;;;;;;;1.21;100.00;98188.16;5031086;28;20225;-73
2021/03/09 04:34:14;;;;;;;14.17;7.17;;;;;;;1.23;100.00;98184.41;5022750;28;20579;-73
2021/03/09 04:36:41;;;;;;;12.43;6.40;;;;;;;1.30;100.00;98185.53;5030434;28;20300;-74
2021/03/09 04:39:09;;;;;;;16.23;6.90;;;;;;;1.37;100.00;98186.63;5034326;28;20222;-73
2021/03/09 04:41:36;;;;;;;14.27;7.10;;;;;;;1.39;100.00;98191.75;5032462;28;20201;-73
2021/03/09 04:44:05;;;;;;;13.43;6.30;;;;;;;1.36;100.00;98189.41;5025501;28;20683;-74
2021/03/09 04:46:32;;;;;;;12.60;6.50;;;;;;;1.39;100.00;98192.59;5022685;28;20908;-73
2021/03/09 04:48:58;;;;;;;15.30;7.77;;;;;;;1.30;100.00;98200.47;5030030;28;20228;-74
2021/03/09 04:51:25;;;;;;;13.07;6.57;;;;;;;1.13;100.00;98204.59;5025856;28;20230;-74
2021/03/09 04:53:53;;;;;;;13.60;6.83;;;;;;;1.17;100.00;98198.13;5031070;28;20214;-74
2021/03/09 04:56:20;;;;;;;11.93;6.87;;;;;;;1.35;100.00;98185.94;5030173;28;20206;-73
2021/03/09 04:58:47;;;;;;;22.30;7.13;;;;;;;1.19;100.00;98187.47;5028243;28;20760;-74
2021/03/09 05:01:14;;;;;;;17.70;6.33;;;;;;;1.32;100.00;98182.78;5025632;28;20249;-74
2021/03/09 05:03:41;;;;;;;10.37;6.00;;;;;;;1.24;100.00;98193.13;5029119;28;20294;-72
2021/03/09 05:06:08;;;;;;;14.27;6.87;;;;;;;1.20;100.00;98197.00;5028444;28;20319;-74
2021/03/09 05:08:35;;;;;;;13.43;7.03;;;;;;;1.15;100.00;98200.06;5029454;28;20711;-73
2021/03/09 05:11:01;;;;;;;13.00;6.87;;;;;;;1.19;100.00;98193.56;5026540;28;20230;-74
2021/03/09 05:13:28;;;;;;;15.23;6.77;;;;;;;1.09;100.00;98186.63;5028328;28;20206;-74
2021/03/09 05:15:55;;;;;;;14.40;7.10;;;;;;;1.20;100.00;98191.75;5029534;28;20207;-73
2021/03/09 05:18:23;;;;;;;16.07;6.63;;;;;;;1.27;100.00;98195.50;5028970;28;20718;-73
2021/03/09 05:20:49;;;;;;;19.57;7.70;;;;;;;1.19;100.00;98196.19;5024613;28;20199;-73
2021/03/09 05:23:16;;;;;;;17.40;7.33;;;;;;;1.30;100.00;98200.47;5027919;28;20214;-74
2021/03/09 05:25:43;;;;;;;13.67;7.23;;;;;;;1.28;100.00;98208.47;5030276;28;20210;-73
2021/03/09 05:28:10;;;;;;;15.83;7.73;;;;;;;1.31;100.00;98208.22;5030151;28;20214;-74
2021/03/09 05:30:36;;;;;;;17.60;7.60;;;;;;;1.31;100.00;98210.84;5030652;28;20198;-73
2021/03/09 05:33:03;;;;;;;14.53;7.83;;;;;;;1.58;100.00;98208.34;5031617;28;20293;-73
2021/03/09 05:35:31;;;;;;;17.83;8.37;;;;;;;1.57;100.00;98209.31;5030463;28;20209;-73
2021/03/09 05:37:58;;;;;;;16.57;8.03;;;;;;;1.53;100.00;98202.66;5027239;28;20198;-74
2021/03/09 05:40:25;;;;;;;17.50;7.63;;;;;;;1.47;100.00;98205.84;5025067;28;20214;-74
2021/03/09 05:42:53;;;;;;;15.10;7.77;;;;;;;1.35;100.00;98203.50;5032780;28;20202;-74
2021/03/09 05:45:21;;;;;;;14.80;7.97;;;;;;;1.41;100.00;98198.53;5026070;28;20207;-73
2021/03/09 05:47:48;;;;;;;17.60;7.57;;;;;;;1.38;100.00;98196.16;5033062;28;20202;-73
2021/03/09 05:50:15;;;;;;;20.17;7.63;;;;;;;1.29;100.00;98204.91;5024158;28;20227;-73
2021/03/09 05:52:43;;;;;;;21.40;8.33;;;;;;;1.43;100.00;98204.47;5030310;28;20233;-73
2021/03/09 05:55:12;;;;;;;19.60;9.47;;;;;;;1.52;100.00;98202.78;5032018;28;20213;-72
2021/03/09 05:57:39;;;;;;;21.83;9.90;;;;;;;1.51;100.00;98207.25;5028431;28;20198;-73
2021/03/09 06:00:07;;;;;;;21.63;9.70;;;;;;;1.67;100.00;98209.28;5033210;28;20267;-73
2021/03/09 06:02:35;;;;;;;16.03;8.40;;;;;;;1.71;100.00;98221.19;5030403;28;20202;-73
2021/03/09 06:05:03;;;;;;;18.97;8.67;;;;;;;1.91;100.00;98210.50;5026589;28;20202;-73
2021/03/09 06:07:30;;;;;;;17.57;8.83;;;;;;;1.93;100.00;98213.00;5028290;28;20202;-72
2021/03/09 06:09:58;;;;;;;17.60;8.13;;;;;;;2.05;100.00;98207.41;5029694;28;20337;-72
2021/03/09 06:12:25;;;;;;;18.30;8.97;;;;;;;2.02;100.00;98210.31;5030239;28;20240;-72
2021/03/09 06:15:04;;;;;;;21.83;9.10;;;;;;;2.29;100.00;98204.28;5031931;28;20255;-73
2021/03/09 06:17:35;;;;;;;20.80;9.13;;;;;;;2.09;100.00;98211.41;5028992;28;20206;-72
2021/03/09 06:20:02;;;;;;;15.33;7.97;;;;;;;2.14;100.00;98209.16;5026775;28;20234;-72
2021/03/09 06:22:44;;;;;;;16.50;8.20;;;;;;;2.21;100.00;98220.81;5033083;28;20229;-72
2021/03/09 06:25:15;;;;;;;21.50;9.07;;;;;;;1.92;100.00;98220.03;5032796;28;20202;-75
2021/03/09 06:27:42;;;;;;;20.50;9.52;;;;;;;1.97;100.00;98219.59;5026510;28;20504;-73
2021/03/09 06:30:12;;;;;;;20.13;8.87;;;;;;;2.11;100.00;98213.91;5032743;28;20634;-74
2021/03/09 06:32:41;;;;;;;21.37;8.10;;;;;;;2.10;100.00;98212.25;5029801;28;20309;-79
2021/03/09 06:35:25;;;;;;;21.23;10.70;;;;;;;2.31;100.00;98205.81;5035638;28;20567;-76
2021/03/09 06:37:52;;;;;;;19.00;8.50;;;;;;;2.37;100.00;98207.84;5032477;28;20297;-75
2021/03/09 06:40:20;;;;;;;23.53;10.23;;;;;;;2.55;100.00;98213.97;5030546;28;20208;-74
2021/03/09 06:42:47;;;;;;;15.43;7.77;;;;;;;2.65;100.00;98209.50;5033356;28;20651;-73
2021/03/09 06:45:15;;;;;;;20.20;9.03;;;;;;;2.86;100.00;98215.38;5034355;28;20229;-75
2021/03/09 06:47:43;;;;;;;20.40;10.93;;;;;;;2.99;100.00;98214.97;5034647;28;20452;-76
2021/03/09 06:50:12;;;;;;;18.73;9.73;;;;;;;3.13;100.00;98210.03;5035518;28;20404;-77
2021/03/09 06:52:39;;;;;;;18.63;9.07;;;;;;;3.30;100.00;98201.28;5033888;28;20580;-74
2021/03/09 06:55:08;;;;;;;19.50;9.43;;;;;;;3.39;100.00;98207.47;5037891;28;20206;-74
2021/03/09 06:57:35;;;;;;;19.50;8.87;;;;;;;3.44;100.00;98213.97;5023678;28;20648;-74
2021/03/09 07:00:05;;;;;;;19.10;9.40;;;;;;;3.36;100.00;98213.88;5026687;28;20226;-71
2021/03/09 07:02:32;;;;;;;21.67;9.30;;;;;;;3.55;100.00;98213.72;5032112;28;20705;-76
2021/03/09 07:05:04;;;;;;;19.90;8.77;;;;;;;3.81;100.00;98211.94;5036134;28;20210;-73
2021/03/09 07:07:32;;;;;;;16.83;8.90;;;;;;;4.01;100.00;98220.53;5031726;28;20202;-77
2021/03/09 07:10:01;;;;;;;15.97;8.23;;;;;;;4.16;100.00;98218.97;5031245;28;20313;-75
2021/03/09 07:12:29;;;;;;;17.33;7.93;;;;;;;4.36;100.00;98213.28;5029005;28;20229;-74
2021/03/09 07:14:57;;;;;;;14.70;7.53;;;;;;;4.42;100.00;98214.50;5029143;28;20213;-74
2021/03/09 07:17:26;;;;;;;13.27;7.10;;;;;;;4.53;100.00;98220.31;5029422;28;20275;-74
2021/03/09 07:19:53;;;;;;;17.40;7.47;;;;;;;4.65;100.00;98231.44;5020786;28;20637;-73
2021/03/09 07:22:21;;;;;;;14.70;7.50;;;;;;;4.89;100.00;98234.19;5031081;28;20687;-72
2021/03/09 07:25:01;;;;;;;17.27;8.03;;;;;;;4.47;100.00;98223.59;5031275;28;20202;-73
2021/03/09 07:27:41;;;;;;;23.73;7.90;;;;;;;4.71;100.00;98233.44;5030747;28;20301;-74
2021/03/09 07:30:11;;;;;;;15.70;7.50;;;;;;;5.09;97.29;98230.28;5027834;28;20236;-74
2021/03/09 07:32:39;;;;;;;13.13;7.27;;;;;;;5.10;98.76;98224.00;5018674;28;20227;-75
2021/03/09 07:35:08;;;;;;;17.73;7.60;;;;;;;4.98;96.96;98228.75;5029525;28;20214;-76
2021/03/09 07:37:37;;;;;;;17.33;8.07;;;;;;;4.72;96.05;98233.28;5028196;28;20285;-75
2021/03/09 07:40:05;;;;;;;13.73;7.30;;;;;;;5.54;91.92;98231.50;5030630;28;20230;-76
2021/03/09 07:42:31;;;;;;;19.23;7.43;;;;;;;5.86;86.67;98233.38;5030749;28;20203;-76
2021/03/09 07:44:58;;;;;;;15.30;7.70;;;;;;;5.68;88.75;98238.81;5030913;28;20249;-75
2021/03/09 07:47:26;;;;;;;12.97;6.97;;;;;;;5.19;93.08;98230.97;5029323;28;20252;-76
2021/03/09 07:49:53;;;;;;;16.30;7.87;;;;;;;5.03;92.28;98229.09;5038663;28;20237;-77
2021/03/09 07:52:21;;;;;;;15.70;8.03;;;;;;;5.44;90.58;98227.38;5030985;28;20227;-75
2021/03/09 07:55:16;;;;;;;14.10;8.27;;;;;;;5.23;93.28;98227.81;5031987;28;20206;-76
2021/03/09 07:57:43;;;;;;;17.30;8.37;;;;;;;4.81;95.16;98229.69;5032144;28;20215;-76
2021/03/09 08:00:12;;;;;;;20.67;8.53;;;;;;;4.35;98.71;98232.78;5034912;28;20236;-76
2021/03/09 08:02:53;;;;;;;16.70;8.27;;;;;;;4.86;100.00;98231.84;5036176;28;20216;-75
2021/03/09 08:05:22;;;;;;;15.63;8.27;;;;;;;4.40;100.00;98227.84;5032370;28;20287;-75
2021/03/09 08:07:54;;;;;;;15.77;7.93;;;;;;;4.50;98.69;98233.00;5029023;28;20207;-76
2021/03/09 08:10:44;;;;;;;15.33;8.47;;;;;;;5.06;95.65;98231.44;5030163;28;20265;-77
2021/03/09 08:13:27;;;;;;;18.67;8.90;;;;;;;5.72;93.43;98224.25;5028431;28;20203;-76
2021/03/09 08:16:30;;;;;;;15.27;8.63;;;;;;;4.72;97.21;98235.94;5031652;28;20213;-76
2021/03/09 08:18:59;;;;;;;14.90;8.77;;;;;;;4.51;100.00;98234.66;5019207;28;20621;-76
2021/03/09 08:21:54;;;;;;;15.93;9.23;;;;;;;4.62;100.00;98232.56;5027497;28;20286;-76
2021/03/09 08:24:36;;;;;;;18.00;8.93;;;;;;;5.46;95.87;98231.50;5031797;28;20216;-76
2021/03/09 08:27:03;;;;;;;15.73;8.50;;;;;;;6.42;87.94;98231.50;5031258;28;20194;-76
2021/03/09 08:29:34;;;;;;;22.73;9.90;;;;;;;5.29;94.98;98229.00;5024586;28;20223;-77
2021/03/09 08:32:26;;;;;;;21.80;10.80;;;;;;;5.54;96.86;98231.50;5032566;28;20243;-74
2021/03/09 08:35:34;;;;;;;18.10;9.30;;;;;;;6.08;91.19;98230.03;5022984;28;20225;-74
2021/03/09 08:38:16;;;;;;;16.13;9.93;;;;;;;5.23;96.44;98224.38;5026139;28;20204;-74
2021/03/09 08:41:02;;;;;;;21.27;10.33;;;;;;;6.37;89.39;98238.28;5021009;28;20211;-74
2021/03/09 08:43:29;;;;;;;21.10;9.83;;;;;;;6.53;86.05;98239.06;5031142;28;20229;-74
2021/03/09 08:45:57;;;;;;;21.20;10.67;;;;;;;5.86;89.32;98222.78;5028055;28;20200;-77
2021/03/09 08:48:55;;;;;;;20.70;9.23;;;;;;;6.17;91.65;98223.75;5038593;28;20229;-75
2021/03/09 08:51:50;;;;;;;18.80;9.30;;;;;;;6.24;88.13;98222.91;5031278;28;20619;-73
2021/03/09 08:54:28;;;;;;;18.63;9.33;;;;;;;5.87;91.23;98212.03;5027021;28;20264;-73
2021/03/09 08:56:56;;;;;;;17.40;9.60;;;;;;;5.55;93.36;98216.47;5026989;28;20249;-73
2021/03/09 08:59:24;;;;;;;19.07;10.03;;;;;;;6.16;90.22;98220.28;5029265;28;20438;-73
2021/03/09 09:01:51;;;;;;;20.77;10.50;;;;;;;6.60;87.07;98221.47;5025539;28;20561;-73
2021/03/09 09:04:19;;;;;;;16.10;9.37;;;;;;;6.88;83.12;98216.56;5027830;28;20207;-73
2021/03/09 09:06:46;;;;;;;19.20;10.50;;;;;;;6.34;87.23;98206.84;5028323;28;20206;-73
2021/03/09 09:09:28;;;;;;;17.33;9.40;;;;;;;7.25;80.86;98214.88;5033463;28;20236;-72
2021/03/09 09:11:55;;;;;;;19.43;10.13;;;;;;;7.02;82.48;98210.53;5031386;28;20219;-74
2021/03/09 09:14:22;;;;;;;18.43;9.60;;;;;;;7.00;79.77;98215.19;5028292;28;20205;-73
2021/03/09 09:16:49;;;;;;;18.53;9.53;;;;;;;7.23;78.61;98206.28;5027677;28;20291;-73
2021/03/09 09:19:16;;;;;;;20.53;10.10;;;;;;;7.20;78.07;98211.94;5032230;28;20697;-73
2021/03/09 09:21:47;;;;;;;20.87;10.20;;;;;;;7.07;80.44;98206.38;5032848;28;20209;-73
2021/03/09 09:24:23;;;;;;;20.83;9.80;;;;;;;7.19;78.07;98209.44;5031342;28;20214;-73
2021/03/09 09:27:03;;;;;;;19.73;9.57;;;;;;;6.89;78.86;98210.25;5031406;28;20258;-73
2021/03/09 09:29:30;;;;;;;18.40;9.30;;;;;;;6.85;78.68;98208.97;5030967;28;20337;-75
2021/03/09 09:32:01;;;;;;;18.00;9.63;;;;;;;8.07;74.30;98212.25;5033277;28;20228;-76
2021/03/09 09:34:35;;;;;;;15.53;9.07;;;;;;;8.08;70.56;98221.88;5032547;28;20551;-73
2021/03/09 09:37:16;;;;;;;21.70;9.87;;;;;;;7.93;71.74;98213.06;5032925;28;20316;-72
2021/03/09 09:39:44;;;;;;;19.80;10.23;;;;;;;7.38;73.55;98215.16;5031695;28;20232;-74
2021/03/09 09:42:15;;;;;;;21.07;9.73;;;;;;;7.86;71.28;98214.78;5029933;28;20596;-79
2021/03/09 09:44:42;;;;;;;16.27;8.97;;;;;;;8.22;69.33;98215.00;5027864;28;20202;-74
2021/03/09 09:47:10;;;;;;;18.83;9.37;;;;;;;7.83;70.67;98214.31;5030043;28;20297;-76
2021/03/09 09:49:38;;;;;;;16.43;9.13;;;;;;;7.58;72.92;98208.38;5033667;28;20587;-76
2021/03/09 09:52:12;;;;;;;16.23;9.10;;;;;;;7.40;74.55;98206.97;5033688;28;20248;-75
2021/03/09 09:54:39;;;;;;;22.90;9.63;;;;;;;7.93;71.75;98209.56;5032123;28;20652;-76
2021/03/09 09:57:12;;;;;;;16.87;9.63;;;;;;;8.11;70.47;98213.56;5037549;28;20213;-75
2021/03/09 09:59:39;;;;;;;15.33;8.97;;;;;;;9.16;64.31;98222.03;5025868;28;20230;-74
2021/03/09 10:02:16;;;;;;;17.07;9.63;;;;;;;8.23;67.53;98222.75;5034239;28;20195;-75
2021/03/09 10:04:43;;;;;;;16.77;9.37;;;;;;;8.64;67.73;98213.38;5025981;28;20210;-73
2021/03/09 10:07:15;;;;;;;17.23;10.00;;;;;;;8.79;65.70;98221.34;5035724;28;20214;-75
2021/03/09 10:09:57;;;;;;;25.50;10.00;;;;;;;8.54;66.44;98217.31;5028664;28;20733;-74
2021/03/09 10:12:36;;;;;;;19.30;9.67;;;;;;;8.20;68.09;98211.66;5032740;28;20234;-74
2021/03/09 10:15:06;;;;;;;16.43;9.70;;;;;;;9.04;65.07;98217.38;5032952;28;20213;-73
2021/03/09 10:17:33;;;;;;;19.63;9.90;;;;;;;8.55;66.21;98218.94;5027693;28;20664;-75
2021/03/09 10:20:00;;;;;;;14.77;9.17;;;;;;;8.44;68.35;98209.59;5028685;28;20702;-73
2021/03/09 10:22:27;;;;;;;19.47;9.77;;;;;;;9.59;61.24;98223.72;5036424;28;20205;-74
2021/03/09 10:25:08;;;;;;;18.13;9.10;;;;;;;8.98;64.22;98224.25;5028024;28;20215;-74
2021/03/09 10:27:36;;;;;;;19.30;9.77;;;;;;;8.92;61.99;98224.16;5032706;28;20805;-75
2021/03/09 10:30:04;;;;;;;15.00;8.77;;;;;;;8.86;63.43;98214.25;5030614;28;20226;-75
2021/03/09 10:32:31;;;;;;;19.50;10.57;;;;;;;8.46;63.86;98220.03;5032231;28;20226;-74
2021/03/09 10:34:58;;;;;;;20.27;10.03;;;;;;;8.80;63.09;98215.84;5025549;28;20595;-73
2021/03/09 10:37:36;;;;;;;14.83;9.17;;;;;;;8.96;61.74;98212.97;5033209;28;20228;-75
2021/03/09 10:40:06;;;;;;;16.93;8.37;;;;;;;9.02;60.36;98214.06;5035037;28;20236;-75
2021/03/09 10:42:36;;;;;;;15.70;8.83;;;;;;;9.22;60.96;98204.47;5032072;28;20210;-74
2021/03/09 10:45:19;;;;;;;18.50;8.90;;;;;;;9.07;59.62;98212.50;5031262;28;20207;-73
2021/03/09 10:47:49;;;;;;;19.10;8.97;;;;;;;9.98;57.18;98224.13;5030087;28;20845;-74
2021/03/09 10:50:17;;;;;;;16.93;8.97;;;;;;;9.16;57.77;98221.19;5037791;28;20242;-73
2021/03/09 10:52:44;;;;;;;15.03;9.47;;;;;;;9.00;59.65;98205.44;5033014;28;20227;-74
2021/03/09 10:55:11;;;;;;;19.57;9.10;;;;;;;9.02;58.76;98211.38;5025169;28;20203;-73
2021/03/09 10:57:39;;;;;;;13.77;9.03;;;;;;;9.60;58.08;98206.72;5023208;28;20273;-74
2021/03/09 11:00:08;;;;;;;33.63;12.23;;;;;;;9.25;59.93;98204.94;5026418;28;20291;-74
2021/03/09 11:02:34;;;;;;;10.17;7.20;;;;;;;10.40;52.09;98229.41;5034200;28;20202;-75
2021/03/09 11:05:01;;;;;;;13.07;7.47;;;;;;;9.39;54.36;98220.03;5025852;28;20204;-74
2021/03/09 11:07:28;;;;;;;13.47;7.83;;;;;;;9.68;54.92;98222.59;5030814;28;20294;-74
2021/03/09 11:09:55;;;;;;;15.03;8.10;;;;;;;9.33;55.91;98217.31;5031329;28;20239;-75
2021/03/09 11:12:22;;;;;;;13.90;7.50;;;;;;;8.72;57.88;98223.91;5032331;28;20230;-77
2021/03/09 11:14:49;;;;;;;17.30;7.40;;;;;;;9.36;55.63;98219.59;5026204;28;20199;-77
2021/03/09 11:17:16;;;;;;;18.57;7.13;;;;;;;9.44;55.38;98212.31;5026865;28;20210;-77
2021/03/09 11:19:43;;;;;;;13.90;7.13;;;;;;;9.40;54.18;98215.53;5034979;28;20223;-80
2021/03/09 11:22:10;;;;;;;13.13;7.13;;;;;;;9.55;53.92;98211.78;5035903;28;20664;-80
2021/03/09 11:24:37;;;;;;;12.97;6.97;;;;;;;10.12;51.60;98222.41;5034200;28;20211;-78
2021/03/09 11:27:04;;;;;;;13.00;7.23;;;;;;;10.28;50.03;98230.97;5033703;28;20210;-78
2021/03/09 11:29:33;;;;;;;20.43;7.77;;;;;;;10.04;50.39;98226.03;5034248;28;20225;-79
2021/03/09 11:32:00;;;;;;;13.07;6.63;;;;;;;9.56;50.74;98215.31;5031428;28;20756;-79
2021/03/09 11:34:27;;;;;;;9.47;6.53;;;;;;;9.84;49.59;98221.53;5032767;28;20253;-79
2021/03/09 11:36:55;;;;;;;10.87;6.57;;;;;;;9.96;50.22;98220.84;5032784;28;20293;-78
2021/03/09 11:39:22;;;;;;;11.93;6.80;;;;;;;10.35;48.08;98218.50;5031346;28;20222;-79